sensor_id;sensor_type;location;lat;lon;timestamp;temperature;humidity
23839;DHT22;12100;44.384;20.272;2022-10-04T00:06:56;11.40;99.90
23839;DHT22;12100;44.384;20.272;2022-10-04T00:09:26;11.30;99.90
23839;DHT22;12100;44.384;20.272;2022-10-04T00:11:56;11.30;99.90
23839;DHT22;12100;44.384;20.272;2022-10-04T00:14:28;11.40;99.90
23839;DHT22;12100;44.384;20.272;2022-10-04T00:16:56;11.40;99.90
23839;DHT22;12100;44.384;20.272;2022-10-04T00:19:36;11.40;99.90
23839;DHT22;12100;44.384;20.272;2022-10-04T00:24:36;11.40;99.90
23839;DHT22;12100;44.384;20.272;2022-10-04T00:37:55;11.20;99.90
23839;DHT22;12100;44.384;20.272;2022-10-04T00:40:23;11.10;99.90
23839;DHT22;12100;44.384;20.272;2022-10-04T00:43:36;11.00;99.90
23839;DHT22;12100;44.384;20.272;2022-10-04T00:45:58;10.90;99.90
23839;DHT22;12100;44.384;20.272;2022-10-04T00:48:43;10.80;99.90
23839;DHT22;12100;44.384;20.272;2022-10-04T00:51:43;10.70;99.90
23839;DHT22;12100;44.384;20.272;2022-10-04T00:54:22;10.60;99.90
23839;DHT22;12100;44.384;20.272;2022-10-04T00:56:56;10.50;99.90
23839;DHT22;12100;44.384;20.272;2022-10-04T01:02:21;10.40;99.90
23839;DHT22;12100;44.384;20.272;2022-10-04T01:05:02;10.30;99.90
23839;DHT22;12100;44.384;20.272;2022-10-04T01:07:38;10.30;99.90
23839;DHT22;12100;44.384;20.272;2022-10-04T01:10:10;10.20;99.90
23839;DHT22;12100;44.384;20.272;2022-10-04T01:18:35;10.10;99.90
23839;DHT22;12100;44.384;20.272;2022-10-04T01:26:05;9.90;99.90
23839;DHT22;12100;44.384;20.272;2022-10-04T01:28:34;9.90;99.90
23839;DHT22;12100;44.384;20.272;2022-10-04T01:31:00;9.80;99.90
23839;DHT22;12100;44.384;20.272;2022-10-04T01:33:26;9.80;99.90
23839;DHT22;12100;44.384;20.272;2022-10-04T01:35:52;9.80;99.90
23839;DHT22;12100;44.384;20.272;2022-10-04T01:38:18;9.80;99.90
23839;DHT22;12100;44.384;20.272;2022-10-04T01:40:53;9.80;99.90
23839;DHT22;12100;44.384;20.272;2022-10-04T01:43:26;9.80;99.90
23839;DHT22;12100;44.384;20.272;2022-10-04T01:45:59;9.90;99.90
23839;DHT22;12100;44.384;20.272;2022-10-04T01:48:31;9.90;99.90
23839;DHT22;12100;44.384;20.272;2022-10-04T01:51:01;10.00;99.90
23839;DHT22;12100;44.384;20.272;2022-10-04T01:53:31;10.10;99.90
23839;DHT22;12100;44.384;20.272;2022-10-04T01:56:21;10.10;99.90
23839;DHT22;12100;44.384;20.272;2022-10-04T01:58:54;10.10;99.90
23839;DHT22;12100;44.384;20.272;2022-10-04T02:01:31;10.20;99.90
23839;DHT22;12100;44.384;20.272;2022-10-04T02:04:07;10.30;99.90
23839;DHT22;12100;44.384;20.272;2022-10-04T02:06:37;10.40;99.90
23839;DHT22;12100;44.384;20.272;2022-10-04T02:09:09;10.50;99.90
23839;DHT22;12100;44.384;20.272;2022-10-04T02:11:36;10.60;99.90
23839;DHT22;12100;44.384;20.272;2022-10-04T02:14:04;10.60;99.90
23839;DHT22;12100;44.384;20.272;2022-10-04T02:16:37;10.60;99.90
23839;DHT22;12100;44.384;20.272;2022-10-04T02:19:04;10.70;99.90
23839;DHT22;12100;44.384;20.272;2022-10-04T02:21:35;10.70;99.90
23839;DHT22;12100;44.384;20.272;2022-10-04T02:24:02;10.70;99.90
23839;DHT22;12100;44.384;20.272;2022-10-04T02:26:28;10.70;99.90
23839;DHT22;12100;44.384;20.272;2022-10-04T02:28:54;10.70;99.90
23839;DHT22;12100;44.384;20.272;2022-10-04T02:31:21;10.80;99.90
23839;DHT22;12100;44.384;20.272;2022-10-04T02:34:06;10.80;99.90
23839;DHT22;12100;44.384;20.272;2022-10-04T02:36:33;10.70;99.90
23839;DHT22;12100;44.384;20.272;2022-10-04T02:39:03;10.80;99.90
23839;DHT22;12100;44.384;20.272;2022-10-04T02:41:32;10.80;99.90
23839;DHT22;12100;44.384;20.272;2022-10-04T02:46:41;10.70;99.90
23839;DHT22;12100;44.384;20.272;2022-10-04T02:52:01;10.80;99.90
23839;DHT22;12100;44.384;20.272;2022-10-04T02:54:56;11.00;99.90
23839;DHT22;12100;44.384;20.272;2022-10-04T02:57:28;11.00;99.90
23839;DHT22;12100;44.384;20.272;2022-10-04T03:02:35;11.20;99.90
23839;DHT22;12100;44.384;20.272;2022-10-04T03:05:07;11.20;99.90
23839;DHT22;12100;44.384;20.272;2022-10-04T03:07:35;11.30;99.90
23839;DHT22;12100;44.384;20.272;2022-10-04T03:10:02;11.30;99.90
23839;DHT22;12100;44.384;20.272;2022-10-04T03:12:32;11.40;99.90
23839;DHT22;12100;44.384;20.272;2022-10-04T03:14:58;11.40;99.90
23839;DHT22;12100;44.384;20.272;2022-10-04T03:17:24;11.50;99.90
23839;DHT22;12100;44.384;20.272;2022-10-04T03:19:51;11.50;99.90
23839;DHT22;12100;44.384;20.272;2022-10-04T03:22:17;11.60;99.90
23839;DHT22;12100;44.384;20.272;2022-10-04T03:24:49;11.60;99.90
23839;DHT22;12100;44.384;20.272;2022-10-04T03:27:23;11.60;99.90
23839;DHT22;12100;44.384;20.272;2022-10-04T03:29:50;11.60;99.90
23839;DHT22;12100;44.384;20.272;2022-10-04T03:32:17;11.70;99.90
23839;DHT22;12100;44.384;20.272;2022-10-04T03:34:52;11.70;99.90
23839;DHT22;12100;44.384;20.272;2022-10-04T03:37:20;11.70;99.90
23839;DHT22;12100;44.384;20.272;2022-10-04T03:39:48;11.70;99.90
23839;DHT22;12100;44.384;20.272;2022-10-04T03:42:17;11.70;99.90
23839;DHT22;12100;44.384;20.272;2022-10-04T03:44:49;11.80;99.90
23839;DHT22;12100;44.384;20.272;2022-10-04T03:47:21;11.70;99.90
23839;DHT22;12100;44.384;20.272;2022-10-04T03:49:50;11.70;99.90
23839;DHT22;12100;44.384;20.272;2022-10-04T03:52:35;11.70;99.90
23839;DHT22;12100;44.384;20.272;2022-10-04T03:55:05;11.80;99.90
23839;DHT22;12100;44.384;20.272;2022-10-04T03:57:32;11.80;99.90
23839;DHT22;12100;44.384;20.272;2022-10-04T03:59:59;11.80;99.90
23839;DHT22;12100;44.384;20.272;2022-10-04T04:05:21;11.80;99.90
23839;DHT22;12100;44.384;20.272;2022-10-04T04:08:05;11.80;99.90
23839;DHT22;12100;44.384;20.272;2022-10-04T04:10:38;11.80;99.90
23839;DHT22;12100;44.384;20.272;2022-10-04T04:15:47;11.80;99.90
23839;DHT22;12100;44.384;20.272;2022-10-04T04:18:22;11.80;99.90
23839;DHT22;12100;44.384;20.272;2022-10-04T04:20:50;11.70;99.90
23839;DHT22;12100;44.384;20.272;2022-10-04T04:23:31;11.70;99.90
23839;DHT22;12100;44.384;20.272;2022-10-04T04:26:18;11.70;99.90
23839;DHT22;12100;44.384;20.272;2022-10-04T04:28:57;11.60;99.90
23839;DHT22;12100;44.384;20.272;2022-10-04T04:31:31;11.40;99.90
23839;DHT22;12100;44.384;20.272;2022-10-04T04:34:04;11.40;99.90
23839;DHT22;12100;44.384;20.272;2022-10-04T04:36:38;11.30;99.90
23839;DHT22;12100;44.384;20.272;2022-10-04T04:39:20;11.30;99.90
23839;DHT22;12100;44.384;20.272;2022-10-04T04:42:18;11.30;99.90
23839;DHT22;12100;44.384;20.272;2022-10-04T04:47:36;11.40;99.90
23839;DHT22;12100;44.384;20.272;2022-10-04T04:50:16;11.40;99.90
23839;DHT22;12100;44.384;20.272;2022-10-04T04:53:04;11.50;99.90
23839;DHT22;12100;44.384;20.272;2022-10-04T04:55:43;11.50;99.90
23839;DHT22;12100;44.384;20.272;2022-10-04T04:58:21;11.50;99.90
23839;DHT22;12100;44.384;20.272;2022-10-04T05:00:55;11.70;99.90
23839;DHT22;12100;44.384;20.272;2022-10-04T05:03:23;11.70;99.90
23839;DHT22;12100;44.384;20.272;2022-10-04T05:05:50;11.90;99.60
23839;DHT22;12100;44.384;20.272;2022-10-04T05:08:31;12.10;99.30
23839;DHT22;12100;44.384;20.272;2022-10-04T05:13:41;12.10;98.80
23839;DHT22;12100;44.384;20.272;2022-10-04T05:18:42;12.10;98.60
23839;DHT22;12100;44.384;20.272;2022-10-04T05:21:24;12.00;98.40
23839;DHT22;12100;44.384;20.272;2022-10-04T05:23:52;12.00;98.60
23839;DHT22;12100;44.384;20.272;2022-10-04T05:26:25;12.10;98.80
23839;DHT22;12100;44.384;20.272;2022-10-04T05:28:52;12.20;98.40
23839;DHT22;12100;44.384;20.272;2022-10-04T05:33:56;12.50;97.10
23839;DHT22;12100;44.384;20.272;2022-10-04T05:36:46;12.60;97.20
23839;DHT22;12100;44.384;20.272;2022-10-04T05:42:27;12.90;96.90
23839;DHT22;12100;44.384;20.272;2022-10-04T05:44:55;13.00;96.00
23839;DHT22;12100;44.384;20.272;2022-10-04T05:47:26;13.40;95.70
23839;DHT22;12100;44.384;20.272;2022-10-04T05:49:55;13.90;94.40
23839;DHT22;12100;44.384;20.272;2022-10-04T05:55:20;15.60;90.80
23839;DHT22;12100;44.384;20.272;2022-10-04T06:03:32;18.50;74.70
23839;DHT22;12100;44.384;20.272;2022-10-04T06:06:15;17.40;76.70
23839;DHT22;12100;44.384;20.272;2022-10-04T06:22:46;19.70;63.70
23839;DHT22;12100;44.384;20.272;2022-10-04T06:25:23;20.20;64.30
23839;DHT22;12100;44.384;20.272;2022-10-04T06:28:18;18.90;67.70
23839;DHT22;12100;44.384;20.272;2022-10-04T06:31:16;18.40;69.10
23839;DHT22;12100;44.384;20.272;2022-10-04T06:42:25;18.80;69.70
23839;DHT22;12100;44.384;20.272;2022-10-04T06:45:34;18.40;70.80
23839;DHT22;12100;44.384;20.272;2022-10-04T06:51:16;17.00;74.10
23839;DHT22;12100;44.384;20.272;2022-10-04T06:56:51;20.80;67.80
23839;DHT22;12100;44.384;20.272;2022-10-04T06:59:54;21.90;62.70
23839;DHT22;12100;44.384;20.272;2022-10-04T07:08:26;28.50;47.90
23839;DHT22;12100;44.384;20.272;2022-10-04T07:11:23;29.10;44.40
23839;DHT22;12100;44.384;20.272;2022-10-04T07:14:09;32.30;38.20
23839;DHT22;12100;44.384;20.272;2022-10-04T07:19:34;32.20;36.70
23839;DHT22;12100;44.384;20.272;2022-10-04T07:29:59;34.30;33.40
23839;DHT22;12100;44.384;20.272;2022-10-04T07:32:35;36.40;31.50
23839;DHT22;12100;44.384;20.272;2022-10-04T07:37:52;35.90;30.70
23839;DHT22;12100;44.384;20.272;2022-10-04T07:40:30;34.50;31.10
23839;DHT22;12100;44.384;20.272;2022-10-04T07:43:21;33.70;32.40
23839;DHT22;12100;44.384;20.272;2022-10-04T07:45:59;33.50;34.20
23839;DHT22;12100;44.384;20.272;2022-10-04T07:48:28;33.80;32.30
23839;DHT22;12100;44.384;20.272;2022-10-04T07:50:59;33.70;33.10
23839;DHT22;12100;44.384;20.272;2022-10-04T07:53:36;34.70;32.10
23839;DHT22;12100;44.384;20.272;2022-10-04T07:56:14;34.90;30.90
23839;DHT22;12100;44.384;20.272;2022-10-04T07:59:00;33.30;32.60
23839;DHT22;12100;44.384;20.272;2022-10-04T08:01:48;32.10;33.30
23839;DHT22;12100;44.384;20.272;2022-10-04T08:07:03;28.60;40.20
23839;DHT22;12100;44.384;20.272;2022-10-04T08:09:51;26.80;43.10
23839;DHT22;12100;44.384;20.272;2022-10-04T08:15:55;23.70;50.20
23839;DHT22;12100;44.384;20.272;2022-10-04T08:21:01;22.80;52.80
23839;DHT22;12100;44.384;20.272;2022-10-04T08:23:50;22.60;53.10
23839;DHT22;12100;44.384;20.272;2022-10-04T08:32:49;20.70;58.70
23839;DHT22;12100;44.384;20.272;2022-10-04T08:35:33;20.60;59.70
23839;DHT22;12100;44.384;20.272;2022-10-04T08:38:13;20.30;59.60
23839;DHT22;12100;44.384;20.272;2022-10-04T08:49:14;21.60;58.50
23839;DHT22;12100;44.384;20.272;2022-10-04T09:00:42;20.20;59.30
23839;DHT22;12100;44.384;20.272;2022-10-04T09:06:43;20.40;60.20
23839;DHT22;12100;44.384;20.272;2022-10-04T09:12:05;21.30;58.50
23839;DHT22;12100;44.384;20.272;2022-10-04T09:34:02;20.60;58.90
23839;DHT22;12100;44.384;20.272;2022-10-04T09:47:44;20.00;60.40
23839;DHT22;12100;44.384;20.272;2022-10-04T09:52:47;20.20;61.10
23839;DHT22;12100;44.384;20.272;2022-10-04T10:01:24;20.90;58.70
23839;DHT22;12100;44.384;20.272;2022-10-04T10:14:56;19.70;60.70
23839;DHT22;12100;44.384;20.272;2022-10-04T10:17:42;19.70;60.50
23839;DHT22;12100;44.384;20.272;2022-10-04T10:20:39;20.00;59.80
23839;DHT22;12100;44.384;20.272;2022-10-04T10:32:16;20.60;58.10
23839;DHT22;12100;44.384;20.272;2022-10-04T10:37:15;21.20;58.00
23839;DHT22;12100;44.384;20.272;2022-10-04T10:40:05;21.30;57.20
23839;DHT22;12100;44.384;20.272;2022-10-04T10:46:14;22.00;56.10
23839;DHT22;12100;44.384;20.272;2022-10-04T11:09:28;21.50;56.20
23839;DHT22;12100;44.384;20.272;2022-10-04T11:43:30;21.30;55.50
23839;DHT22;12100;44.384;20.272;2022-10-04T11:53:55;22.60;54.30
23839;DHT22;12100;44.384;20.272;2022-10-04T12:08:03;30.60;37.70
23839;DHT22;12100;44.384;20.272;2022-10-04T12:10:41;26.70;42.70
23839;DHT22;12100;44.384;20.272;2022-10-04T12:27:08;31.90;34.60
23839;DHT22;12100;44.384;20.272;2022-10-04T12:33:11;27.50;40.00
23839;DHT22;12100;44.384;20.272;2022-10-04T12:36:00;25.30;45.00
23839;DHT22;12100;44.384;20.272;2022-10-04T12:38:46;23.40;49.10
23839;DHT22;12100;44.384;20.272;2022-10-04T12:41:26;22.00;51.90
23839;DHT22;12100;44.384;20.272;2022-10-04T12:46:56;21.60;53.80
23839;DHT22;12100;44.384;20.272;2022-10-04T12:52:16;21.50;55.50
23839;DHT22;12100;44.384;20.272;2022-10-04T12:54:51;21.30;55.90
23839;DHT22;12100;44.384;20.272;2022-10-04T13:00:21;21.20;57.40
23839;DHT22;12100;44.384;20.272;2022-10-04T13:05:47;20.50;57.90
23839;DHT22;12100;44.384;20.272;2022-10-04T13:19:01;19.90;60.40
23839;DHT22;12100;44.384;20.272;2022-10-04T13:24:24;19.40;61.80
23839;DHT22;12100;44.384;20.272;2022-10-04T13:27:14;19.30;62.50
23839;DHT22;12100;44.384;20.272;2022-10-04T13:29:56;19.20;62.70
23839;DHT22;12100;44.384;20.272;2022-10-04T13:56:00;18.10;67.00
23839;DHT22;12100;44.384;20.272;2022-10-04T14:18:02;18.50;67.50
23839;DHT22;12100;44.384;20.272;2022-10-04T14:21:11;18.60;65.90
23839;DHT22;12100;44.384;20.272;2022-10-04T14:32:24;18.50;66.70
23839;DHT22;12100;44.384;20.272;2022-10-04T14:35:10;18.50;67.70
23839;DHT22;12100;44.384;20.272;2022-10-04T15:06:55;17.30;70.60
23839;DHT22;12100;44.384;20.272;2022-10-04T15:09:51;17.20;70.00
23839;DHT22;12100;44.384;20.272;2022-10-04T15:17:34;16.80;72.10
23839;DHT22;12100;44.384;20.272;2022-10-04T15:22:51;16.60;72.00
23839;DHT22;12100;44.384;20.272;2022-10-04T15:31:00;16.40;72.70
23839;DHT22;12100;44.384;20.272;2022-10-04T15:33:56;16.30;72.70
23839;DHT22;12100;44.384;20.272;2022-10-04T15:36:26;16.30;73.20
23839;DHT22;12100;44.384;20.272;2022-10-04T15:38:56;16.20;73.90
23839;DHT22;12100;44.384;20.272;2022-10-04T15:41:47;16.20;73.90
23839;DHT22;12100;44.384;20.272;2022-10-04T15:55:24;16.10;76.30
23839;DHT22;12100;44.384;20.272;2022-10-04T16:03:51;15.90;77.80
23839;DHT22;12100;44.384;20.272;2022-10-04T16:06:26;15.80;78.70
23839;DHT22;12100;44.384;20.272;2022-10-04T16:09:28;15.80;79.50
23839;DHT22;12100;44.384;20.272;2022-10-04T16:12:06;15.60;81.30
23839;DHT22;12100;44.384;20.272;2022-10-04T16:23:23;14.50;96.40
23839;DHT22;12100;44.384;20.272;2022-10-04T16:25:54;14.30;99.90
23839;DHT22;12100;44.384;20.272;2022-10-04T16:36:50;14.20;99.90
23839;DHT22;12100;44.384;20.272;2022-10-04T16:48:01;13.90;99.90
23839;DHT22;12100;44.384;20.272;2022-10-04T16:51:20;13.90;99.90
23839;DHT22;12100;44.384;20.272;2022-10-04T17:17:59;13.60;99.90
23839;DHT22;12100;44.384;20.272;2022-10-04T17:20:52;13.50;99.90
23839;DHT22;12100;44.384;20.272;2022-10-04T17:26:20;13.50;99.90
23839;DHT22;12100;44.384;20.272;2022-10-04T17:31:56;13.60;99.90
23839;DHT22;12100;44.384;20.272;2022-10-04T17:47:56;13.20;99.90
23839;DHT22;12100;44.384;20.272;2022-10-04T17:53:34;13.00;99.90
23839;DHT22;12100;44.384;20.272;2022-10-04T17:56:49;12.80;99.90
23839;DHT22;12100;44.384;20.272;2022-10-04T17:59:23;12.60;99.90
23839;DHT22;12100;44.384;20.272;2022-10-04T18:02:01;12.40;99.90
23839;DHT22;12100;44.384;20.272;2022-10-04T18:04:31;12.30;99.90
23839;DHT22;12100;44.384;20.272;2022-10-04T18:07:19;12.20;99.90
23839;DHT22;12100;44.384;20.272;2022-10-04T18:09:51;12.10;99.90
23839;DHT22;12100;44.384;20.272;2022-10-04T18:12:28;12.00;99.90
23839;DHT22;12100;44.384;20.272;2022-10-04T18:15:05;11.90;99.90
23839;DHT22;12100;44.384;20.272;2022-10-04T18:20:21;11.80;99.90
23839;DHT22;12100;44.384;20.272;2022-10-04T18:25:25;11.70;99.90
23839;DHT22;12100;44.384;20.272;2022-10-04T18:30:51;11.60;99.90
23839;DHT22;12100;44.384;20.272;2022-10-04T18:33:24;11.50;99.90
23839;DHT22;12100;44.384;20.272;2022-10-04T18:36:16;11.40;99.90
23839;DHT22;12100;44.384;20.272;2022-10-04T18:39:15;11.40;99.90
23839;DHT22;12100;44.384;20.272;2022-10-04T18:41:29;11.30;99.90
23839;DHT22;12100;44.384;20.272;2022-10-04T18:44:28;11.20;99.90
23839;DHT22;12100;44.384;20.272;2022-10-04T18:47:23;11.20;99.90
23839;DHT22;12100;44.384;20.272;2022-10-04T18:49:52;11.00;99.90
23839;DHT22;12100;44.384;20.272;2022-10-04T18:54:59;10.80;99.90
23839;DHT22;12100;44.384;20.272;2022-10-04T18:57:41;10.80;99.90
23839;DHT22;12100;44.384;20.272;2022-10-04T19:00:37;10.80;99.90
23839;DHT22;12100;44.384;20.272;2022-10-04T19:03:39;10.80;99.90
23839;DHT22;12100;44.384;20.272;2022-10-04T19:06:21;10.70;99.90
23839;DHT22;12100;44.384;20.272;2022-10-04T19:09:50;10.60;99.90
23839;DHT22;12100;44.384;20.272;2022-10-04T19:12:26;10.60;99.90
23839;DHT22;12100;44.384;20.272;2022-10-04T19:17:58;10.30;99.90
23839;DHT22;12100;44.384;20.272;2022-10-04T19:20:51;10.20;99.90
23839;DHT22;12100;44.384;20.272;2022-10-04T19:23:28;10.10;99.90
23839;DHT22;12100;44.384;20.272;2022-10-04T19:26:17;10.10;99.90
23839;DHT22;12100;44.384;20.272;2022-10-04T19:28:57;10.10;99.90
23839;DHT22;12100;44.384;20.272;2022-10-04T19:31:51;10.10;99.90
23839;DHT22;12100;44.384;20.272;2022-10-04T19:34:30;10.20;99.90
23839;DHT22;12100;44.384;20.272;2022-10-04T19:37:05;10.20;99.90
23839;DHT22;12100;44.384;20.272;2022-10-04T19:42:22;10.10;99.90
23839;DHT22;12100;44.384;20.272;2022-10-04T19:47:54;10.20;99.90
23839;DHT22;12100;44.384;20.272;2022-10-04T19:50:26;10.20;99.90
23839;DHT22;12100;44.384;20.272;2022-10-04T19:52:58;10.20;99.90
23839;DHT22;12100;44.384;20.272;2022-10-04T20:00:59;10.10;99.90
23839;DHT22;12100;44.384;20.272;2022-10-04T20:03:25;10.10;99.90
23839;DHT22;12100;44.384;20.272;2022-10-04T20:05:52;10.20;99.90
23839;DHT22;12100;44.384;20.272;2022-10-04T20:08:47;10.10;99.90
23839;DHT22;12100;44.384;20.272;2022-10-04T20:13:44;10.10;99.90
23839;DHT22;12100;44.384;20.272;2022-10-04T20:34:56;10.20;99.90
23839;DHT22;12100;44.384;20.272;2022-10-04T20:45:48;10.10;99.90
23839;DHT22;12100;44.384;20.272;2022-10-04T20:50:48;10.30;99.90
23839;DHT22;12100;44.384;20.272;2022-10-04T20:53:31;10.30;99.90
23839;DHT22;12100;44.384;20.272;2022-10-04T20:56:21;10.20;99.90
23839;DHT22;12100;44.384;20.272;2022-10-04T20:58:55;10.20;99.90
23839;DHT22;12100;44.384;20.272;2022-10-04T21:01:33;10.20;99.90
23839;DHT22;12100;44.384;20.272;2022-10-04T21:04:26;10.40;99.90
23839;DHT22;12100;44.384;20.272;2022-10-04T21:06:57;10.40;99.90
23839;DHT22;12100;44.384;20.272;2022-10-04T21:09:24;10.40;99.90
23839;DHT22;12100;44.384;20.272;2022-10-04T21:11:53;10.40;99.90
23839;DHT22;12100;44.384;20.272;2022-10-04T21:14:26;10.50;99.90
23839;DHT22;12100;44.384;20.272;2022-10-04T21:16:53;10.60;99.90
23839;DHT22;12100;44.384;20.272;2022-10-04T21:24:38;10.60;99.90
23839;DHT22;12100;44.384;20.272;2022-10-04T21:27:06;10.50;99.90
23839;DHT22;12100;44.384;20.272;2022-10-04T21:29:37;10.50;99.90
23839;DHT22;12100;44.384;20.272;2022-10-04T21:32:03;10.50;99.90
23839;DHT22;12100;44.384;20.272;2022-10-04T21:34:29;10.70;99.90
23839;DHT22;12100;44.384;20.272;2022-10-04T21:36:55;10.70;99.90
23839;DHT22;12100;44.384;20.272;2022-10-04T21:39:21;10.60;99.90
23839;DHT22;12100;44.384;20.272;2022-10-04T21:41:47;10.60;99.90
23839;DHT22;12100;44.384;20.272;2022-10-04T21:44:13;10.60;99.90
23839;DHT22;12100;44.384;20.272;2022-10-04T21:46:39;10.50;99.90
23839;DHT22;12100;44.384;20.272;2022-10-04T21:49:05;10.50;99.90
23839;DHT22;12100;44.384;20.272;2022-10-04T21:51:31;10.50;99.90
23839;DHT22;12100;44.384;20.272;2022-10-04T21:54:01;10.50;99.90
23839;DHT22;12100;44.384;20.272;2022-10-04T21:56:27;10.50;99.90
23839;DHT22;12100;44.384;20.272;2022-10-04T21:58:53;10.50;99.90
23839;DHT22;12100;44.384;20.272;2022-10-04T22:01:18;10.50;99.90
23839;DHT22;12100;44.384;20.272;2022-10-04T22:03:44;10.50;99.90
23839;DHT22;12100;44.384;20.272;2022-10-04T22:06:10;10.50;99.90
23839;DHT22;12100;44.384;20.272;2022-10-04T22:08:36;10.50;99.90
23839;DHT22;12100;44.384;20.272;2022-10-04T22:11:01;10.60;99.90
23839;DHT22;12100;44.384;20.272;2022-10-04T22:13:27;10.60;99.90
23839;DHT22;12100;44.384;20.272;2022-10-04T22:15:53;10.70;99.90
23839;DHT22;12100;44.384;20.272;2022-10-04T22:18:19;10.60;99.90
23839;DHT22;12100;44.384;20.272;2022-10-04T22:20:45;10.60;99.90
23839;DHT22;12100;44.384;20.272;2022-10-04T22:23:17;10.60;99.90
23839;DHT22;12100;44.384;20.272;2022-10-04T22:25:43;10.60;99.90
23839;DHT22;12100;44.384;20.272;2022-10-04T22:28:23;10.60;99.90
23839;DHT22;12100;44.384;20.272;2022-10-04T22:30:51;10.50;99.90
23839;DHT22;12100;44.384;20.272;2022-10-04T22:33:36;10.60;99.90
23839;DHT22;12100;44.384;20.272;2022-10-04T22:36:47;10.60;99.90
23839;DHT22;12100;44.384;20.272;2022-10-04T22:41:41;10.60;99.90
23839;DHT22;12100;44.384;20.272;2022-10-04T22:46:44;10.60;99.90
23839;DHT22;12100;44.384;20.272;2022-10-04T22:49:16;10.60;99.90
23839;DHT22;12100;44.384;20.272;2022-10-04T22:51:43;10.60;99.90
23839;DHT22;12100;44.384;20.272;2022-10-04T22:54:16;10.60;99.90
23839;DHT22;12100;44.384;20.272;2022-10-04T22:56:42;10.60;99.90
23839;DHT22;12100;44.384;20.272;2022-10-04T22:59:10;10.50;99.90
23839;DHT22;12100;44.384;20.272;2022-10-04T23:01:37;10.50;99.90
23839;DHT22;12100;44.384;20.272;2022-10-04T23:04:10;10.40;99.90
23839;DHT22;12100;44.384;20.272;2022-10-04T23:06:37;10.40;99.90
23839;DHT22;12100;44.384;20.272;2022-10-04T23:09:03;10.30;99.90
23839;DHT22;12100;44.384;20.272;2022-10-04T23:11:31;10.30;99.90
23839;DHT22;12100;44.384;20.272;2022-10-04T23:13:57;10.30;99.90
23839;DHT22;12100;44.384;20.272;2022-10-04T23:16:23;10.20;99.90
23839;DHT22;12100;44.384;20.272;2022-10-04T23:18:51;10.20;99.90
23839;DHT22;12100;44.384;20.272;2022-10-04T23:21:24;10.10;99.90
23839;DHT22;12100;44.384;20.272;2022-10-04T23:23:51;10.10;99.90
23839;DHT22;12100;44.384;20.272;2022-10-04T23:26:28;10.00;99.90
23839;DHT22;12100;44.384;20.272;2022-10-04T23:28:57;9.90;99.90
23839;DHT22;12100;44.384;20.272;2022-10-04T23:31:25;9.80;99.90
23839;DHT22;12100;44.384;20.272;2022-10-04T23:33:53;9.60;99.90
23839;DHT22;12100;44.384;20.272;2022-10-04T23:36:21;9.60;99.90
23839;DHT22;12100;44.384;20.272;2022-10-04T23:38:49;9.60;99.90
23839;DHT22;12100;44.384;20.272;2022-10-04T23:41:18;9.60;99.90
23839;DHT22;12100;44.384;20.272;2022-10-04T23:43:45;9.60;99.90
23839;DHT22;12100;44.384;20.272;2022-10-04T23:46:15;9.60;99.90
23839;DHT22;12100;44.384;20.272;2022-10-04T23:48:42;9.50;99.90
23839;DHT22;12100;44.384;20.272;2022-10-04T23:51:11;9.50;99.90
23839;DHT22;12100;44.384;20.272;2022-10-04T23:53:39;9.50;99.90
23839;DHT22;12100;44.384;20.272;2022-10-04T23:56:21;9.50;99.90
23839;DHT22;12100;44.384;20.272;2022-10-04T23:58:49;9.50;99.90
